createdAt,value
2018-03-19T00:00:51.490Z,-2.30
2018-03-19T00:02:17.551Z,-2.33
2018-03-19T00:03:44.661Z,-2.34
2018-03-19T00:05:12.537Z,-2.33
2018-03-19T00:06:38.381Z,-2.36
2018-03-19T00:08:06.382Z,-2.36
2018-03-19T00:09:33.410Z,-2.38
2018-03-19T00:10:59.614Z,-2.40
2018-03-19T00:12:26.617Z,-2.41
2018-03-19T00:13:54.648Z,-2.42
2018-03-19T00:15:20.670Z,-2.44
2018-03-19T00:16:48.555Z,-2.47
2018-03-19T00:18:14.522Z,-2.50
2018-03-19T00:19:41.420Z,-2.55
2018-03-19T00:21:09.300Z,-2.58
2018-03-19T00:22:35.510Z,-2.63
2018-03-19T00:24:03.612Z,-2.67
2018-03-19T00:25:29.665Z,-2.70
2018-03-19T00:26:57.729Z,-2.72
2018-03-19T00:28:24.478Z,-2.74
2018-03-19T00:29:50.558Z,-2.75
2018-03-19T00:31:18.605Z,-2.76
2018-03-19T00:32:45.568Z,-2.77
2018-03-19T00:34:11.413Z,-2.77
2018-03-19T00:35:39.234Z,-2.78
2018-03-19T00:37:05.081Z,-2.78
2018-03-19T00:38:32.091Z,-2.78
2018-03-19T00:40:00.112Z,-2.80
2018-03-19T00:41:27.199Z,-2.80
2018-03-19T00:42:53.999Z,-2.79
2018-03-19T00:44:21.000Z,-2.80
2018-03-19T00:45:47.809Z,-2.80
2018-03-19T00:47:14.642Z,-2.80
2018-03-19T00:48:40.637Z,-2.82
2018-03-19T00:50:08.469Z,-2.84
2018-03-19T00:51:34.577Z,-2.83
2018-03-19T00:53:01.404Z,-2.82
2018-03-19T00:54:29.570Z,-2.82
2018-03-19T00:55:55.325Z,-2.83
2018-03-19T00:57:22.347Z,-2.84
2018-03-19T00:58:50.410Z,-2.85
2018-03-19T01:00:17.438Z,-2.86
2018-03-19T01:01:43.542Z,-2.86
2018-03-19T01:03:11.476Z,-2.86
2018-03-19T01:04:38.144Z,-2.88
2018-03-19T01:06:04.199Z,-2.90
2018-03-19T01:07:31.324Z,-2.91
2018-03-19T01:08:59.150Z,-2.92
2018-03-19T01:10:26.226Z,-2.93
2018-03-19T01:11:52.119Z,-2.95
2018-03-19T01:13:19.163Z,-2.95
2018-03-19T01:14:47.006Z,-2.95
2018-03-19T01:16:13.794Z,-2.96
2018-03-19T01:17:39.668Z,-3.00
2018-03-19T01:19:07.853Z,-3.02
2018-03-19T01:20:33.956Z,-3.05
2018-03-19T01:22:00.713Z,-3.06
2018-03-19T01:23:28.945Z,-3.08
2018-03-19T01:24:55.992Z,-3.07
2018-03-19T01:26:23.001Z,-3.08
2018-03-19T01:27:48.952Z,-3.10
2018-03-19T01:29:15.932Z,-3.12
2018-03-19T01:30:42.713Z,-3.13
2018-03-19T01:32:09.644Z,-3.16
2018-03-19T01:33:37.683Z,-3.18
2018-03-19T01:35:04.641Z,-3.20
2018-03-19T01:36:31.777Z,-3.22
2018-03-19T01:37:58.824Z,-3.22
2018-03-19T01:39:25.779Z,-3.22
2018-03-19T01:40:51.833Z,-3.26
2018-03-19T01:42:19.716Z,-3.26
2018-03-19T01:43:46.875Z,-3.25
2018-03-19T01:45:13.581Z,-3.24
2018-03-19T01:46:39.346Z,-3.23
2018-03-19T01:48:07.562Z,-3.23
2018-03-19T01:49:34.569Z,-3.23
2018-03-19T01:51:01.280Z,-3.23
2018-03-19T01:52:28.269Z,-3.25
2018-03-19T01:53:55.118Z,-3.27
2018-03-19T01:55:21.142Z,-3.32
2018-03-19T01:56:48.137Z,-3.34
2018-03-19T01:58:16.145Z,-3.35
2018-03-19T01:59:43.040Z,-3.32
2018-03-19T02:01:08.980Z,-3.29
2018-03-19T02:02:37.053Z,-3.22
2018-03-19T02:04:03.206Z,-3.15
2018-03-19T02:05:31.155Z,-3.07
2018-03-19T02:06:57.021Z,-3.03
2018-03-19T02:08:25.194Z,-3.01
2018-03-19T02:09:52.022Z,-3.02
2018-03-19T02:11:19.003Z,-3.03
2018-03-19T02:12:45.893Z,-3.08
2018-03-19T02:14:11.867Z,-3.13
2018-03-19T02:15:39.650Z,-3.13
2018-03-19T02:17:06.692Z,-3.14
2018-03-19T02:18:33.720Z,-3.12
2018-03-19T02:20:00.854Z,-3.08
2018-03-19T02:21:26.737Z,-3.02
2018-03-19T02:22:53.663Z,-3.02
2018-03-19T02:24:20.708Z,-3.01
2018-03-19T02:25:47.675Z,-3.04
2018-03-19T02:27:15.682Z,-3.13
2018-03-19T02:28:41.600Z,-3.20
2018-03-19T02:30:09.328Z,-3.28
2018-03-19T02:31:36.329Z,-3.35
2018-03-19T02:33:03.240Z,-3.39
2018-03-19T02:34:30.127Z,-3.43
2018-03-19T02:35:55.900Z,-3.45
2018-03-19T02:37:22.949Z,-3.49
2018-03-19T02:38:50.985Z,-3.52
2018-03-19T02:40:17.971Z,-3.55
2018-03-19T02:41:44.952Z,-3.55
2018-03-19T02:43:11.888Z,-3.51
2018-03-19T02:44:38.590Z,-3.43
2018-03-19T02:46:05.439Z,-3.34
2018-03-19T02:47:32.364Z,-3.27
2018-03-19T02:48:58.123Z,-3.20
2018-03-19T02:50:25.885Z,-3.16
2018-03-19T02:51:52.960Z,-3.11
2018-03-19T02:53:19.822Z,-3.08
2018-03-19T02:54:46.681Z,-3.06
2018-03-19T02:56:13.548Z,-3.03
2018-03-19T02:57:40.557Z,-3.02
2018-03-19T02:59:06.513Z,-3.05
2018-03-19T03:00:34.520Z,-3.11
2018-03-19T03:02:00.740Z,-3.14
2018-03-19T03:03:28.615Z,-3.14
2018-03-19T03:04:54.552Z,-3.15
2018-03-19T03:06:21.714Z,-3.18
2018-03-19T03:07:49.742Z,-3.25
2018-03-19T03:09:16.669Z,-3.27
2018-03-19T03:10:42.768Z,-3.32
2018-03-19T03:12:09.586Z,-3.31
2018-03-19T03:13:37.595Z,-3.35
2018-03-19T03:15:04.437Z,-3.39
2018-03-19T03:16:31.409Z,-3.43
2018-03-19T03:17:58.320Z,-3.48
2018-03-19T03:19:24.240Z,-3.52
2018-03-19T03:20:51.201Z,-3.54
2018-03-19T03:22:19.042Z,-3.54
2018-03-19T03:23:44.940Z,-3.53
2018-03-19T03:25:12.802Z,-3.47
2018-03-19T03:26:39.515Z,-3.41
2018-03-19T03:28:06.646Z,-3.35
2018-03-19T03:29:33.602Z,-3.31
2018-03-19T03:30:59.617Z,-3.28
2018-03-19T03:32:26.588Z,-3.27
2018-03-19T03:33:53.632Z,-3.29
2018-03-19T03:35:21.706Z,-3.27
2018-03-19T03:36:47.706Z,-3.25
2018-03-19T03:38:15.850Z,-3.24
2018-03-19T03:39:42.584Z,-3.23
2018-03-19T03:41:09.414Z,-3.22
2018-03-19T03:42:36.330Z,-3.22
2018-03-19T03:44:03.509Z,-3.21
2018-03-19T03:45:30.467Z,-3.19
2018-03-19T03:46:57.571Z,-3.20
2018-03-19T03:48:23.482Z,-3.20
2018-03-19T03:49:51.431Z,-3.20
2018-03-19T03:51:18.188Z,-3.18
2018-03-19T03:52:45.211Z,-3.19
2018-03-19T03:54:12.065Z,-3.18
2018-03-19T03:55:39.014Z,-3.18
2018-03-19T03:57:05.974Z,-3.19
2018-03-19T03:58:32.753Z,-3.18
2018-03-19T03:59:58.578Z,-3.18
2018-03-19T04:01:26.543Z,-3.18
2018-03-19T04:02:53.553Z,-3.19
2018-03-19T04:04:20.424Z,-3.23
2018-03-19T04:05:46.490Z,-3.25
2018-03-19T04:07:14.280Z,-3.24
2018-03-19T04:08:40.085Z,-3.23
2018-03-19T04:10:08.154Z,-3.23
2018-03-19T04:11:34.246Z,-3.24
2018-03-19T04:13:01.124Z,-3.25
2018-03-19T04:14:27.940Z,-3.25
2018-03-19T04:15:55.095Z,-3.27
2018-03-19T04:17:22.956Z,-3.27
2018-03-19T04:18:48.865Z,-3.26
2018-03-19T04:20:15.875Z,-3.25
2018-03-19T04:21:42.891Z,-3.24
2018-03-19T04:23:10.849Z,-3.25
2018-03-19T04:24:36.924Z,-3.25
2018-03-19T04:26:03.848Z,-3.26
2018-03-19T04:27:31.960Z,-3.27
2018-03-19T04:28:58.951Z,-3.27
2018-03-19T04:30:25.926Z,-3.28
2018-03-19T04:31:53.292Z,-3.32
2018-03-19T04:33:20.082Z,-3.36
2018-03-19T04:34:46.062Z,-3.36
2018-03-19T04:36:13.915Z,-3.36
2018-03-19T04:37:40.923Z,-3.36
2018-03-19T04:39:07.752Z,-3.37
2018-03-19T04:40:34.819Z,-3.36
2018-03-19T04:42:01.772Z,-3.34
2018-03-19T04:43:28.819Z,-3.35
2018-03-19T04:44:55.054Z,-3.40
2018-03-19T04:46:22.093Z,-3.41
2018-03-19T04:47:48.963Z,-3.40
2018-03-19T04:49:16.872Z,-3.41
2018-03-19T04:50:43.810Z,-3.41
2018-03-19T04:52:10.683Z,-3.42
2018-03-19T04:53:36.641Z,-3.40
2018-03-19T04:55:04.663Z,-3.41
2018-03-19T04:56:31.574Z,-3.42
2018-03-19T04:57:57.562Z,-3.43
2018-03-19T04:59:25.655Z,-3.44
2018-03-19T05:00:52.568Z,-3.44
2018-03-19T05:02:19.464Z,-3.44
2018-03-19T05:03:46.591Z,-3.43
2018-03-19T05:05:12.420Z,-3.43
2018-03-19T05:06:40.311Z,-3.43
2018-03-19T05:08:07.267Z,-3.44
2018-03-19T05:09:34.198Z,-3.47
2018-03-19T05:11:00.255Z,-3.51
2018-03-19T05:12:27.197Z,-3.52
2018-03-19T05:13:57.113Z,-3.51
2018-03-19T05:15:21.186Z,-3.51
2018-03-19T05:16:48.168Z,-3.54
2018-03-19T05:18:16.187Z,-3.55
2018-03-19T05:19:43.137Z,-3.56
2018-03-19T05:21:10.041Z,-3.56
2018-03-19T05:22:36.046Z,-3.56
2018-03-19T05:24:04.008Z,-3.58
2018-03-19T05:25:30.033Z,-3.58
2018-03-19T05:26:57.070Z,-3.58
2018-03-19T05:28:24.023Z,-3.58
2018-03-19T05:29:51.880Z,-3.61
2018-03-19T05:31:18.973Z,-3.63
2018-03-19T05:32:45.927Z,-3.66
2018-03-19T05:34:13.151Z,-3.66
2018-03-19T05:35:39.008Z,-3.66
2018-03-19T05:37:07.151Z,-3.67
2018-03-19T05:38:34.078Z,-3.67
2018-03-19T05:40:00.078Z,-3.63
2018-03-19T05:41:28.106Z,-3.60
2018-03-19T05:42:54.168Z,-3.58
2018-03-19T05:44:21.059Z,-3.59
2018-03-19T05:45:49.384Z,-3.57
2018-03-19T05:47:15.382Z,-3.56
2018-03-19T05:48:42.399Z,-3.58
2018-03-19T05:50:10.256Z,-3.70
2018-03-19T05:51:37.325Z,-3.80
2018-03-19T05:53:04.335Z,-3.89
2018-03-19T05:54:31.134Z,-3.87
2018-03-19T05:55:58.032Z,-3.81
2018-03-19T05:57:24.876Z,-3.78
2018-03-19T05:58:51.671Z,-3.68
2018-03-19T06:00:19.290Z,-3.59
2018-03-19T06:01:45.260Z,-3.54
2018-03-19T06:03:11.094Z,-3.46
2018-03-19T06:04:38.993Z,-3.37
2018-03-19T06:06:05.946Z,-3.35
2018-03-19T06:07:32.765Z,-3.33
2018-03-19T06:08:59.664Z,-3.33
2018-03-19T06:10:26.652Z,-3.33
2018-03-19T06:11:52.766Z,-3.36
2018-03-19T06:13:20.901Z,-3.37
2018-03-19T06:14:47.777Z,-3.37
2018-03-19T06:16:14.635Z,-3.34
2018-03-19T06:17:40.566Z,-3.30
2018-03-19T06:19:07.151Z,-3.25
2018-03-19T06:20:35.196Z,-3.21
2018-03-19T06:22:02.217Z,-3.20
2018-03-19T06:23:29.276Z,-3.19
2018-03-19T06:24:56.274Z,-3.18
2018-03-19T06:26:23.383Z,-3.17
2018-03-19T06:27:50.251Z,-3.19
2018-03-19T06:29:16.951Z,-3.18
2018-03-19T06:30:42.882Z,-3.17
2018-03-19T06:32:09.673Z,-3.14
2018-03-19T06:33:37.718Z,-3.11
2018-03-19T06:35:04.514Z,-3.08
2018-03-19T06:36:30.508Z,-3.05
2018-03-19T06:37:58.412Z,-3.01
2018-03-19T06:39:25.434Z,-2.98
2018-03-19T06:40:52.477Z,-2.92
2018-03-19T06:42:18.482Z,-2.86
2018-03-19T06:43:45.456Z,-2.82
2018-03-19T06:45:13.484Z,-2.77
2018-03-19T06:46:39.406Z,-2.71
2018-03-19T06:48:06.200Z,-2.67
2018-03-19T06:49:34.230Z,-2.63
2018-03-19T06:51:00.311Z,-2.61
2018-03-19T06:52:28.328Z,-2.58
2018-03-19T06:53:55.404Z,-2.54
2018-03-19T06:55:21.382Z,-2.47
2018-03-19T06:56:49.312Z,-2.42
2018-03-19T06:58:16.228Z,-2.40
2018-03-19T06:59:43.284Z,-2.37
2018-03-19T07:01:10.161Z,-2.32
2018-03-19T07:02:36.129Z,-2.30
2018-03-19T07:04:03.207Z,-2.28
2018-03-19T07:05:31.101Z,-2.26
2018-03-19T07:06:57.978Z,-2.22
2018-03-19T07:08:24.052Z,-2.18
2018-03-19T07:09:52.146Z,-2.13
2018-03-19T07:11:18.209Z,-2.10
2018-03-19T07:12:46.297Z,-2.03
2018-03-19T07:14:13.428Z,-1.97
2018-03-19T07:15:39.981Z,-1.91
2018-03-19T07:17:07.069Z,-1.80
2018-03-19T07:18:34.064Z,-1.70
2018-03-19T07:20:01.074Z,-1.64
2018-03-19T07:21:26.922Z,-1.57
2018-03-19T07:22:54.857Z,-1.50
2018-03-19T07:24:21.911Z,-1.41
2018-03-19T07:25:48.621Z,-1.36
2018-03-19T07:27:15.681Z,-1.35
2018-03-19T07:28:42.577Z,-1.31
2018-03-19T07:30:08.358Z,-1.28
2018-03-19T07:31:36.607Z,-1.27
2018-03-19T07:33:02.749Z,-1.25
2018-03-19T07:34:30.654Z,-1.25
2018-03-19T07:35:57.642Z,-1.22
2018-03-19T07:37:24.719Z,-1.15
2018-03-19T07:38:50.744Z,-1.07
2018-03-19T07:40:18.697Z,-1.01
2018-03-19T07:41:45.660Z,-1.02
2018-03-19T07:43:11.632Z,-1.04
2018-03-19T07:44:39.778Z,-0.99
2018-03-19T07:46:05.655Z,-0.96
2018-03-19T07:47:33.726Z,-0.93
2018-03-19T07:49:00.987Z,-0.94
2018-03-19T07:50:27.063Z,-0.98
2018-03-19T07:51:54.264Z,-0.98
2018-03-19T07:53:21.267Z,-0.95
2018-03-19T07:54:49.419Z,-0.89
2018-03-19T07:56:15.264Z,-0.84
2018-03-19T07:57:42.392Z,-0.80
2018-03-19T07:59:10.312Z,-0.76
2018-03-19T08:00:36.413Z,-0.75
2018-03-19T08:02:04.414Z,-0.71
2018-03-19T08:03:30.514Z,-0.63
2018-03-19T08:04:57.594Z,-0.57
2018-03-19T08:06:25.926Z,-0.53
2018-03-19T08:07:52.985Z,-0.51
2018-03-19T08:09:20.118Z,-0.51
2018-03-19T08:10:47.103Z,-0.49
2018-03-19T08:12:14.040Z,-0.46
2018-03-19T08:13:46.033Z,-0.42
2018-03-19T08:15:07.871Z,-0.42
2018-03-19T08:16:34.943Z,-0.38
2018-03-19T08:18:00.884Z,-0.35
2018-03-19T08:19:29.018Z,-0.34
2018-03-19T08:20:55.853Z,-0.32
2018-03-19T08:22:22.861Z,-0.27
2018-03-19T08:23:49.125Z,-0.26
2018-03-19T08:25:16.940Z,-0.22
2018-03-19T08:26:43.961Z,-0.21
2018-03-19T08:28:11.060Z,-0.15
2018-03-19T08:29:37.955Z,-0.10
2018-03-19T08:31:03.969Z,-0.12
2018-03-19T08:32:31.170Z,-0.11
2018-03-19T08:33:59.316Z,-0.08
2018-03-19T08:35:25.677Z,-0.03
2018-03-19T08:36:53.823Z,0.01
2018-03-19T08:38:20.890Z,0.05
2018-03-19T08:39:48.003Z,0.08
2018-03-19T08:41:14.023Z,0.06
2018-03-19T08:42:42.227Z,0.09
2018-03-19T08:44:08.978Z,0.11
2018-03-19T08:45:36.146Z,0.12
2018-03-19T08:47:03.270Z,0.13
2018-03-19T08:48:29.406Z,0.19
2018-03-19T08:49:56.480Z,0.21
2018-03-19T08:51:23.686Z,0.26
2018-03-19T08:52:51.651Z,0.34
2018-03-19T08:54:18.753Z,0.38
2018-03-19T08:55:45.939Z,0.39
2018-03-19T08:57:11.674Z,0.40
2018-03-19T08:58:38.698Z,0.42
2018-03-19T09:00:06.730Z,0.44
2018-03-19T09:01:34.105Z,0.52
2018-03-19T09:03:01.209Z,0.51
2018-03-19T09:04:28.381Z,0.54
2018-03-19T09:05:54.452Z,0.55
2018-03-19T09:07:22.723Z,0.57
2018-03-19T09:08:48.667Z,0.60
2018-03-19T09:10:15.762Z,0.58
2018-03-19T09:11:42.742Z,0.58
2018-03-19T09:13:10.734Z,0.60
2018-03-19T09:14:36.790Z,0.65
2018-03-19T09:16:03.529Z,0.67
2018-03-19T09:17:31.780Z,0.68
2018-03-19T09:18:58.843Z,0.71
2018-03-19T09:20:24.791Z,0.74
2018-03-19T09:21:52.911Z,0.76
2018-03-19T09:23:19.103Z,0.77
2018-03-19T09:24:47.231Z,0.79
2018-03-19T09:26:14.265Z,0.84
2018-03-19T09:27:41.406Z,0.84
2018-03-19T09:29:08.624Z,0.82
2018-03-19T09:30:35.871Z,0.91
2018-03-19T09:32:03.085Z,0.99
2018-03-19T09:33:30.237Z,1.03
2018-03-19T09:34:56.513Z,1.06
2018-03-19T09:36:24.730Z,1.08
2018-03-19T09:37:51.750Z,1.10
2018-03-19T09:39:18.897Z,1.13
2018-03-19T09:40:44.946Z,1.22
2018-03-19T09:42:12.040Z,1.23
2018-03-19T09:43:39.185Z,1.23
2018-03-19T09:45:07.187Z,1.28
2018-03-19T09:46:33.451Z,1.23
2018-03-19T09:48:01.465Z,1.24
2018-03-19T09:49:27.658Z,1.31
2018-03-19T09:50:54.729Z,1.42
2018-03-19T09:52:22.789Z,1.51
2018-03-19T09:53:49.776Z,1.52
2018-03-19T09:55:16.940Z,1.55
2018-03-19T09:56:43.063Z,1.54
2018-03-19T09:58:11.061Z,1.60
2018-03-19T09:59:37.177Z,1.63
2018-03-19T10:01:05.474Z,1.66
2018-03-19T10:02:31.556Z,1.72
2018-03-19T10:03:59.732Z,1.72
2018-03-19T10:05:26.781Z,1.69
2018-03-19T10:06:52.975Z,1.71
2018-03-19T10:08:20.287Z,1.75
2018-03-19T10:09:48.304Z,1.73
2018-03-19T10:11:14.350Z,1.75
2018-03-19T10:12:41.439Z,1.82
2018-03-19T10:14:09.456Z,1.85
2018-03-19T10:15:36.631Z,1.91
2018-03-19T10:17:02.760Z,1.99
2018-03-19T10:18:31.093Z,2.03
2018-03-19T10:19:57.190Z,2.02
2018-03-19T10:21:25.493Z,2.00
2018-03-19T10:22:52.578Z,1.99
2018-03-19T10:24:18.631Z,1.99
2018-03-19T10:25:45.723Z,2.07
2018-03-19T10:27:13.936Z,2.14
2018-03-19T10:28:40.142Z,2.18
2018-03-19T10:30:08.251Z,2.20
2018-03-19T10:31:35.387Z,2.27
2018-03-19T10:33:02.425Z,2.27
2018-03-19T10:34:28.722Z,2.25
2018-03-19T10:35:56.008Z,2.30
2018-03-19T10:37:24.023Z,2.36
2018-03-19T10:38:51.240Z,2.38
2018-03-19T10:40:17.429Z,2.44
2018-03-19T10:41:45.581Z,2.50
2018-03-19T10:43:12.659Z,2.64
2018-03-19T10:44:38.780Z,2.70
2018-03-19T10:46:07.082Z,2.74
2018-03-19T10:47:33.090Z,2.77
2018-03-19T10:49:01.211Z,2.76
2018-03-19T10:50:28.471Z,2.76
2018-03-19T10:51:55.736Z,2.80
2018-03-19T10:53:21.802Z,2.86
2018-03-19T10:54:49.075Z,2.87
2018-03-19T10:56:16.184Z,2.86
2018-03-19T10:57:43.352Z,2.81
2018-03-19T10:59:10.538Z,2.77
2018-03-19T11:00:37.757Z,2.72
2018-03-19T11:02:05.844Z,2.77
2018-03-19T11:03:32.118Z,2.86
2018-03-19T11:05:00.216Z,2.96
2018-03-19T11:06:26.386Z,2.98
2018-03-19T11:07:53.567Z,3.06
2018-03-19T11:09:20.755Z,3.12
2018-03-19T11:10:48.743Z,3.15
2018-03-19T11:12:16.106Z,3.13
2018-03-19T11:13:42.083Z,3.17
2018-03-19T11:15:09.174Z,3.15
2018-03-19T11:16:36.351Z,3.20
2018-03-19T11:18:04.398Z,3.27
2018-03-19T11:19:30.622Z,3.35
2018-03-19T11:20:58.899Z,3.41
2018-03-19T11:22:26.039Z,3.47
2018-03-19T11:23:52.413Z,3.53
2018-03-19T11:25:20.573Z,3.55
2018-03-19T11:26:46.782Z,3.65
2018-03-19T11:28:13.846Z,3.68
2018-03-19T11:29:40.944Z,3.76
2018-03-19T11:31:08.038Z,3.85
2018-03-19T11:32:36.162Z,3.86
2018-03-19T11:34:02.418Z,3.92
2018-03-19T11:35:29.652Z,3.99
2018-03-19T11:36:56.899Z,4.06
2018-03-19T11:38:25.148Z,4.12
2018-03-19T11:39:52.371Z,4.11
2018-03-19T11:41:18.357Z,4.16
2018-03-19T11:42:45.646Z,4.17
2018-03-19T11:44:12.686Z,4.31
2018-03-19T11:45:39.910Z,4.43
2018-03-19T11:47:07.170Z,4.56
2018-03-19T11:48:34.391Z,4.66
2018-03-19T11:50:01.497Z,4.70
2018-03-19T11:51:29.772Z,4.76
2018-03-19T11:52:56.086Z,4.83
2018-03-19T11:54:24.184Z,4.73
2018-03-19T11:55:50.403Z,4.69
2018-03-19T11:57:17.676Z,4.85
2018-03-19T11:58:44.746Z,4.90
2018-03-19T12:00:13.003Z,5.20
2018-03-19T12:01:39.187Z,5.43
2018-03-19T12:03:07.448Z,5.47
2018-03-19T12:04:33.761Z,5.41
2018-03-19T12:06:01.043Z,5.43
2018-03-19T12:07:29.276Z,5.49
2018-03-19T12:08:55.447Z,5.58
2018-03-19T12:10:22.796Z,5.64
2018-03-19T12:11:50.206Z,5.64
2018-03-19T12:13:17.378Z,5.65
2018-03-19T12:14:45.648Z,5.55
2018-03-19T12:16:12.838Z,5.56
2018-03-19T12:17:40.044Z,5.59
2018-03-19T12:19:07.376Z,5.59
2018-03-19T12:20:33.666Z,5.61
2018-03-19T12:22:01.035Z,5.74
2018-03-19T12:23:28.192Z,5.90
2018-03-19T12:24:56.522Z,5.96
2018-03-19T12:26:22.695Z,5.80
2018-03-19T12:27:49.912Z,5.79
2018-03-19T12:29:18.206Z,5.88
2018-03-19T12:30:44.597Z,5.85
2018-03-19T12:32:12.716Z,5.86
2018-03-19T12:33:38.895Z,5.87
2018-03-19T12:35:06.024Z,6.24
2018-03-19T12:36:33.377Z,6.66
2018-03-19T12:38:00.576Z,6.85
2018-03-19T12:39:27.880Z,6.72
2018-03-19T12:40:55.305Z,6.66
2018-03-19T12:42:22.666Z,6.57
2018-03-19T12:43:49.855Z,6.63
2018-03-19T12:45:17.190Z,6.65
2018-03-19T12:46:44.380Z,6.58
2018-03-19T12:48:12.420Z,6.49
2018-03-19T12:49:38.475Z,6.42
2018-03-19T12:51:05.657Z,6.53
2018-03-19T12:52:32.976Z,6.45
2018-03-19T12:54:00.223Z,6.43
2018-03-19T12:55:27.446Z,6.36
2018-03-19T12:56:54.794Z,6.29
2018-03-19T12:58:22.112Z,6.36
2018-03-19T12:59:50.333Z,6.58
2018-03-19T13:01:16.429Z,6.98
2018-03-19T13:02:43.712Z,7.35
2018-03-19T13:04:10.869Z,7.68
2018-03-19T13:05:37.983Z,7.63
2018-03-19T13:07:05.329Z,7.27
2018-03-19T13:08:32.400Z,7.19
2018-03-19T13:10:00.531Z,7.08
2018-03-19T13:11:26.643Z,7.30
2018-03-19T13:12:53.944Z,7.32
2018-03-19T13:14:21.002Z,7.29
2018-03-19T13:15:49.354Z,7.02
2018-03-19T13:17:16.605Z,7.10
2018-03-19T13:18:42.597Z,6.96
2018-03-19T13:20:10.019Z,6.80
2018-03-19T13:21:37.192Z,6.71
2018-03-19T13:23:04.564Z,6.66
2018-03-19T13:24:32.012Z,6.65
2018-03-19T13:25:59.155Z,6.79
2018-03-19T13:27:26.338Z,6.79
2018-03-19T13:28:53.716Z,6.72
2018-03-19T13:30:21.251Z,6.60
2018-03-19T13:31:48.403Z,6.55
2018-03-19T13:33:15.587Z,6.42
2018-03-19T13:34:43.926Z,6.31
2018-03-19T13:36:11.179Z,6.43
2018-03-19T13:37:37.685Z,6.41
2018-03-19T13:39:04.832Z,6.39
2018-03-19T13:40:32.199Z,6.27
2018-03-19T13:41:59.605Z,6.18
2018-03-19T13:43:27.810Z,6.19
2018-03-19T13:44:54.164Z,6.31
2018-03-19T13:46:21.340Z,6.49
2018-03-19T13:47:48.440Z,6.47
2018-03-19T13:49:15.675Z,6.35
2018-03-19T13:50:42.917Z,6.40
2018-03-19T13:52:10.004Z,6.52
2018-03-19T13:53:37.300Z,6.50
2018-03-19T13:55:04.451Z,6.43
2018-03-19T13:56:31.727Z,6.33
2018-03-19T13:57:59.065Z,6.24
2018-03-19T13:59:26.423Z,6.28
2018-03-19T14:00:53.651Z,6.23
2018-03-19T14:02:21.171Z,6.17
2018-03-19T14:03:48.515Z,6.17
2018-03-19T14:05:15.619Z,6.15
2018-03-19T14:06:42.783Z,6.11
2018-03-19T14:08:11.068Z,6.15
2018-03-19T14:09:38.413Z,6.29
2018-03-19T14:11:05.543Z,6.54
2018-03-19T14:12:31.921Z,6.79
2018-03-19T14:13:59.207Z,6.98
2018-03-19T14:15:29.423Z,7.05
2018-03-19T14:16:54.741Z,6.86
2018-03-19T14:18:21.159Z,6.50
2018-03-19T14:19:48.387Z,6.32
2018-03-19T14:21:16.818Z,6.21
2018-03-19T14:22:42.922Z,6.16
2018-03-19T14:24:10.900Z,6.27
2018-03-19T14:25:37.231Z,6.46
2018-03-19T14:27:05.458Z,6.52
2018-03-19T14:28:32.735Z,6.27
2018-03-19T14:29:58.902Z,6.26
2018-03-19T14:31:26.282Z,6.25
2018-03-19T14:32:53.327Z,6.09
2018-03-19T14:34:20.729Z,6.19
2018-03-19T14:35:47.972Z,6.30
2018-03-19T14:37:15.151Z,6.20
2018-03-19T14:38:43.488Z,6.09
2018-03-19T14:40:09.652Z,5.94
2018-03-19T14:41:37.893Z,5.91
2018-03-19T14:43:04.049Z,5.79
2018-03-19T14:44:31.328Z,5.67
2018-03-19T14:45:59.615Z,5.65
2018-03-19T14:47:25.833Z,5.74
2018-03-19T14:48:53.204Z,5.84
2018-03-19T14:50:21.371Z,5.81
2018-03-19T14:51:47.595Z,5.79
2018-03-19T14:53:14.937Z,5.74
2018-03-19T14:54:42.079Z,5.56
2018-03-19T14:56:09.177Z,5.50
2018-03-19T14:57:36.546Z,5.58
2018-03-19T14:59:03.812Z,5.63
2018-03-19T15:00:30.942Z,5.54
2018-03-19T15:01:58.196Z,5.52
2018-03-19T15:03:25.466Z,5.60
2018-03-19T15:04:52.801Z,5.62
2018-03-19T15:06:19.937Z,5.58
2018-03-19T15:07:47.126Z,5.59
2018-03-19T15:09:15.661Z,5.66
2018-03-19T15:10:41.872Z,5.64
2018-03-19T15:12:09.025Z,5.68
2018-03-19T15:13:36.409Z,5.71
2018-03-19T15:15:04.636Z,5.60
2018-03-19T15:16:31.980Z,5.54
2018-03-19T15:17:58.190Z,5.47
2018-03-19T15:19:25.338Z,5.40
2018-03-19T15:20:52.633Z,5.43
2018-03-19T15:22:19.771Z,5.47
2018-03-19T15:23:47.003Z,5.52
2018-03-19T15:25:14.405Z,5.46
2018-03-19T15:26:42.639Z,5.45
2018-03-19T15:28:08.873Z,5.45
2018-03-19T15:29:36.124Z,5.37
2018-03-19T15:31:04.397Z,5.26
2018-03-19T15:32:31.671Z,5.16
2018-03-19T15:33:58.824Z,5.03
2018-03-19T15:35:25.032Z,4.98
2018-03-19T15:36:52.310Z,4.86
2018-03-19T15:38:20.579Z,4.77
2018-03-19T15:39:46.854Z,4.74
2018-03-19T15:41:14.014Z,4.65
2018-03-19T15:42:41.132Z,4.69
2018-03-19T15:44:08.299Z,4.62
2018-03-19T15:45:35.609Z,4.53
2018-03-19T15:47:02.857Z,4.49
2018-03-19T15:48:30.151Z,4.47
2018-03-19T15:49:57.440Z,4.45
2018-03-19T15:51:24.708Z,4.46
2018-03-19T15:52:51.929Z,4.48
2018-03-19T15:54:20.128Z,4.45
2018-03-19T15:55:46.233Z,4.33
2018-03-19T15:57:13.460Z,4.21
2018-03-19T15:58:41.525Z,4.26
2018-03-19T16:00:08.783Z,4.29
2018-03-19T16:01:36.048Z,4.31
2018-03-19T16:03:03.069Z,4.28
2018-03-19T16:04:29.440Z,4.26
2018-03-19T16:05:57.700Z,4.25
2018-03-19T16:07:24.121Z,4.26
2018-03-19T16:08:51.349Z,4.23
2018-03-19T16:10:19.513Z,4.21
2018-03-19T16:11:45.726Z,4.16
2018-03-19T16:13:14.043Z,4.13
2018-03-19T16:14:40.947Z,4.05
2018-03-19T16:16:07.088Z,3.98
2018-03-19T16:17:34.311Z,3.90
2018-03-19T16:19:01.598Z,3.84
2018-03-19T16:20:28.849Z,3.86
2018-03-19T16:21:55.808Z,3.86
2018-03-19T16:23:23.983Z,3.81
2018-03-19T16:24:50.288Z,3.77
2018-03-19T16:26:17.629Z,3.74
2018-03-19T16:27:45.811Z,3.72
2018-03-19T16:29:12.058Z,3.73
2018-03-19T16:30:39.272Z,3.73
2018-03-19T16:32:06.502Z,3.76
2018-03-19T16:33:33.705Z,3.78
2018-03-19T16:35:01.812Z,3.75
2018-03-19T16:36:28.081Z,3.72
2018-03-19T16:37:56.243Z,3.71
2018-03-19T16:39:22.398Z,3.71
2018-03-19T16:40:49.625Z,3.69
2018-03-19T16:42:16.893Z,3.61
2018-03-19T16:43:44.083Z,3.55
2018-03-19T16:45:11.305Z,3.41
2018-03-19T16:46:38.317Z,3.44
2018-03-19T16:48:08.631Z,3.41
2018-03-19T16:49:32.810Z,3.41
2018-03-19T16:51:00.094Z,3.41
2018-03-19T16:52:27.316Z,3.41
2018-03-19T16:53:54.354Z,3.39
2018-03-19T16:55:22.565Z,3.33
2018-03-19T16:56:49.806Z,3.37
2018-03-19T16:58:16.939Z,3.30
2018-03-19T16:59:44.092Z,3.25
2018-03-19T17:01:10.203Z,3.22
2018-03-19T17:02:38.328Z,3.17
2018-03-19T17:04:05.527Z,3.10
2018-03-19T17:05:32.841Z,3.06
2018-03-19T17:06:59.905Z,2.91
2018-03-19T17:08:26.136Z,2.81
2018-03-19T17:09:54.378Z,2.75
2018-03-19T17:11:20.627Z,2.76
2018-03-19T17:12:47.877Z,2.78
2018-03-19T17:14:15.844Z,2.83
2018-03-19T17:15:48.011Z,2.80
2018-03-19T17:17:10.037Z,2.69
2018-03-19T17:18:36.288Z,2.64
2018-03-19T17:20:03.496Z,2.56
2018-03-19T17:21:30.594Z,2.50
2018-03-19T17:22:57.827Z,2.44
2018-03-19T17:24:25.975Z,2.45
2018-03-19T17:25:53.097Z,2.43
2018-03-19T17:27:20.368Z,2.35
2018-03-19T17:28:46.466Z,2.27
2018-03-19T17:30:13.622Z,2.28
2018-03-19T17:31:40.790Z,2.30
2018-03-19T17:33:08.879Z,2.24
2018-03-19T17:34:35.035Z,2.17
2018-03-19T17:36:03.290Z,2.13
2018-03-19T17:37:30.624Z,2.05
2018-03-19T17:38:57.826Z,1.98
2018-03-19T17:40:23.751Z,1.89
2018-03-19T17:41:51.969Z,1.79
2018-03-19T17:43:18.208Z,1.74
2018-03-19T17:44:45.440Z,1.71
2018-03-19T17:46:12.508Z,1.69
2018-03-19T17:47:39.747Z,1.76
2018-03-19T17:49:06.874Z,1.77
2018-03-19T17:50:35.034Z,1.71
2018-03-19T17:52:02.268Z,1.71
2018-03-19T17:53:29.158Z,1.71
2018-03-19T17:54:55.107Z,1.69
2018-03-19T17:56:22.159Z,1.72
2018-03-19T17:57:50.343Z,1.69
2018-03-19T17:59:16.513Z,1.71
2018-03-19T18:00:44.649Z,1.70
2018-03-19T18:02:11.822Z,1.70
2018-03-19T18:03:38.677Z,1.74
2018-03-19T18:05:05.967Z,1.79
2018-03-19T18:06:32.074Z,1.76
2018-03-19T18:08:00.289Z,1.75
2018-03-19T18:09:26.505Z,1.77
2018-03-19T18:10:54.644Z,1.70
2018-03-19T18:12:21.876Z,1.67
2018-03-19T18:13:48.024Z,1.68
2018-03-19T18:15:15.137Z,1.63
2018-03-19T18:16:43.305Z,1.62
2018-03-19T18:18:10.359Z,1.64
2018-03-19T18:19:36.395Z,1.66
2018-03-19T18:21:03.558Z,1.61
2018-03-19T18:22:30.623Z,1.59
2018-03-19T18:23:57.690Z,1.54
2018-03-19T18:25:25.940Z,1.56
2018-03-19T18:26:53.146Z,1.57
2018-03-19T18:28:20.027Z,1.55
2018-03-19T18:29:45.908Z,1.58
2018-03-19T18:31:13.146Z,1.61
2018-03-19T18:32:40.188Z,1.63
2018-03-19T18:34:08.297Z,1.63
2018-03-19T18:35:34.308Z,1.65
2018-03-19T18:37:02.379Z,1.64
2018-03-19T18:38:28.810Z,1.65
2018-03-19T18:39:55.901Z,1.68
2018-03-19T18:41:23.133Z,1.71
2018-03-19T18:42:50.356Z,1.72
2018-03-19T18:44:17.281Z,1.73
2018-03-19T18:45:45.546Z,1.72
2018-03-19T18:47:12.726Z,1.72
2018-03-19T18:48:38.855Z,1.73
2018-03-19T18:50:07.186Z,1.73
2018-03-19T18:51:33.300Z,1.73
2018-03-19T18:53:00.517Z,1.74
2018-03-19T18:54:27.603Z,1.73
2018-03-19T18:55:55.749Z,1.71
2018-03-19T18:57:22.792Z,1.68
2018-03-19T18:58:48.880Z,1.65
2018-03-19T19:00:16.074Z,1.64
2018-03-19T19:01:43.346Z,1.63